createdAt,value
2023-05-10T00:01:55.386Z,99998.09
2023-05-10T00:06:56.844Z,99995.84
2023-05-10T00:11:59.414Z,99983.56
2023-05-10T00:17:01.057Z,99979.31
2023-05-10T00:22:02.596Z,99970.44
2023-05-10T00:27:04.970Z,99973.06
2023-05-10T00:32:06.873Z,99971.31
2023-05-10T00:37:08.460Z,99962.19
2023-05-10T00:42:10.197Z,99958.06
2023-05-10T00:47:12.592Z,99956.38
2023-05-10T00:52:14.138Z,99949.19
2023-05-10T00:57:16.293Z,99958.38
2023-05-10T01:02:17.834Z,99950.47
2023-05-10T01:07:19.297Z,99952.34
2023-05-10T01:12:21.043Z,99948.84
2023-05-10T01:17:23.455Z,99944.69
2023-05-10T01:22:51.028Z,99935.66
2023-05-10T01:28:14.223Z,99932.63
2023-05-10T01:33:29.803Z,99937.66
2023-05-10T01:38:43.775Z,99933.66
2023-05-10T01:44:09.369Z,99933.81
2023-05-10T01:49:19.877Z,99929.44
2023-05-10T01:54:25.047Z,99932.31
2023-05-10T01:59:30.727Z,99934.50
2023-05-10T02:04:34.783Z,99938.00
2023-05-10T02:09:38.051Z,99933.31
2023-05-10T02:14:42.158Z,99929.78
2023-05-10T02:19:44.665Z,99922.25
2023-05-10T02:24:47.861Z,99922.75
2023-05-10T02:29:52.289Z,99911.69
2023-05-10T02:34:55.606Z,99910.19
2023-05-10T02:39:58.027Z,99911.03
2023-05-10T02:45:08.227Z,99912.00
2023-05-10T02:50:11.171Z,99917.38
2023-05-10T02:55:16.378Z,99919.22
2023-05-10T03:00:18.285Z,99911.50
2023-05-10T03:05:20.450Z,99911.69
2023-05-10T03:10:27.807Z,99914.69
2023-05-10T03:15:54.316Z,99906.84
2023-05-10T03:21:00.189Z,99906.63
2023-05-10T03:26:02.609Z,99911.31
2023-05-10T03:31:07.132Z,99908.09
2023-05-10T03:36:09.278Z,99922.56
2023-05-10T03:41:11.005Z,99920.88
2023-05-10T03:46:12.619Z,99925.69
2023-05-10T03:51:14.449Z,99923.88
2023-05-10T03:56:16.104Z,99930.75
2023-05-10T04:01:18.249Z,99924.72
2023-05-10T04:06:19.808Z,99929.59
2023-05-10T04:11:22.922Z,99927.13
2023-05-10T04:16:24.488Z,99918.81
2023-05-10T04:21:26.239Z,99918.13
2023-05-10T04:26:27.742Z,99908.53
2023-05-10T04:31:29.277Z,99913.72
2023-05-10T04:36:30.742Z,99916.72
2023-05-10T04:41:32.263Z,99907.78
2023-05-10T04:46:33.822Z,99908.94
2023-05-10T04:51:35.289Z,99915.78
2023-05-10T04:56:36.737Z,99925.22
2023-05-10T05:01:38.213Z,99911.56
2023-05-10T05:06:39.681Z,99912.91
2023-05-10T05:11:41.387Z,99924.50
2023-05-10T05:16:43.996Z,99914.97
2023-05-10T05:21:45.599Z,99918.19
2023-05-10T05:26:47.165Z,99919.91
2023-05-10T05:31:48.646Z,99917.38
2023-05-10T05:36:50.125Z,99919.59
2023-05-10T05:41:51.557Z,99916.72
2023-05-10T05:46:52.992Z,99920.91
2023-05-10T05:51:54.469Z,99921.06
2023-05-10T05:57:01.169Z,99921.50
2023-05-10T06:02:03.292Z,99914.91
2023-05-10T06:07:04.975Z,99922.91
2023-05-10T06:12:06.476Z,99916.16
2023-05-10T06:17:07.958Z,99912.84
2023-05-10T06:22:09.993Z,99913.50
2023-05-10T06:27:12.135Z,99915.53
2023-05-10T06:32:13.633Z,99911.25
2023-05-10T06:37:15.184Z,99919.44
2023-05-10T06:42:16.708Z,99925.75
2023-05-10T06:47:21.355Z,99917.72
2023-05-10T06:52:22.852Z,99914.50
2023-05-10T07:02:31.834Z,99915.56
2023-05-10T07:07:33.263Z,99914.63
2023-05-10T07:12:34.724Z,99910.59
2023-05-10T07:17:36.294Z,99914.00
2023-05-10T07:22:37.905Z,99912.94
2023-05-10T07:27:39.335Z,99911.25
2023-05-10T07:32:42.738Z,99913.41
2023-05-10T07:37:44.195Z,99909.06
2023-05-10T07:42:45.610Z,99914.69
2023-05-10T07:47:47.066Z,99918.59
2023-05-10T07:52:49.059Z,99920.38
2023-05-10T07:57:50.566Z,99911.94
2023-05-10T08:02:52.414Z,99906.50
2023-05-10T08:07:53.945Z,99906.63
2023-05-10T08:12:55.383Z,99908.00
2023-05-10T08:17:56.875Z,99913.97
2023-05-10T08:22:58.419Z,99909.66
2023-05-10T08:28:00.314Z,99915.53
2023-05-10T08:33:05.104Z,99915.94
2023-05-10T08:38:06.732Z,99921.94
2023-05-10T08:43:10.296Z,99925.50
2023-05-10T08:48:12.784Z,99927.78
2023-05-10T08:53:17.191Z,99930.66
2023-05-10T08:58:20.505Z,99938.91
2023-05-10T09:03:21.974Z,99934.88
2023-05-10T09:08:27.238Z,99942.47
2023-05-10T09:13:29.258Z,99941.06
2023-05-10T09:18:30.857Z,99945.88
2023-05-10T09:23:33.300Z,99951.38
2023-05-10T09:28:35.740Z,99949.47
2023-05-10T09:33:45.178Z,99944.97
2023-05-10T09:38:51.785Z,99950.59
2023-05-10T09:43:56.937Z,99952.34
2023-05-10T09:48:59.257Z,99955.53
2023-05-10T09:54:11.868Z,99953.13
2023-05-10T09:59:13.497Z,99950.34
2023-05-10T10:04:15.655Z,99951.59
2023-05-10T10:09:19.394Z,99940.94
2023-05-10T10:14:21.257Z,99948.13
2023-05-10T10:19:23.158Z,99938.88
2023-05-10T10:24:24.599Z,99937.88
2023-05-10T10:30:04.928Z,99938.22
2023-05-10T10:35:09.665Z,99928.75
2023-05-10T10:40:27.349Z,99930.78
2023-05-10T10:45:28.789Z,99924.31
2023-05-10T10:50:30.230Z,99932.75
2023-05-10T10:55:34.484Z,99934.09
2023-05-10T11:00:37.923Z,99931.28
2023-05-10T11:05:46.631Z,99934.00
2023-05-10T11:11:01.019Z,99927.91
2023-05-10T11:16:24.604Z,99935.97
2023-05-10T11:21:27.040Z,99939.91
2023-05-10T11:26:39.089Z,99928.31
2023-05-10T11:31:46.154Z,99943.09
2023-05-10T11:36:52.378Z,99948.38
2023-05-10T11:41:53.882Z,99942.25
2023-05-10T11:46:55.338Z,99949.97
2023-05-10T11:52:07.841Z,99952.41
2023-05-10T11:57:09.290Z,99961.69
2023-05-10T12:02:11.312Z,99960.09
2023-05-10T12:07:12.803Z,99964.81
2023-05-10T12:12:18.019Z,99961.41
2023-05-10T12:17:19.480Z,99973.81
2023-05-10T12:22:22.050Z,99972.44
2023-05-10T12:27:23.488Z,99991.59
2023-05-10T12:32:38.862Z,100002.53
2023-05-10T12:37:40.452Z,99999.00
2023-05-10T12:42:42.069Z,100006.47
2023-05-10T12:47:44.174Z,100009.78
2023-05-10T12:52:45.803Z,100013.38
2023-05-10T12:57:47.242Z,100013.09
2023-05-10T13:02:48.690Z,100022.19
2023-05-10T13:07:53.695Z,100016.69
2023-05-10T13:12:55.352Z,100026.59
2023-05-10T13:17:56.878Z,100028.44
2023-05-10T13:22:58.481Z,100016.09
2023-05-10T13:28:00.085Z,100025.28
2023-05-10T13:33:01.681Z,100029.00
2023-05-10T13:38:03.189Z,100020.97
2023-05-10T13:43:04.710Z,100027.72
2023-05-10T13:48:06.297Z,100027.38
2023-05-10T13:53:07.770Z,100021.53
2023-05-10T13:58:09.223Z,100030.38
2023-05-10T14:03:12.386Z,100021.66
2023-05-10T14:08:14.653Z,100019.78
2023-05-10T14:13:16.200Z,100022.50
2023-05-10T14:18:17.667Z,100028.56
2023-05-10T14:23:20.860Z,100030.06
2023-05-10T14:28:23.783Z,100027.09
2023-05-10T14:33:25.422Z,100026.72
2023-05-10T14:38:27.540Z,100020.88
2023-05-10T14:43:29.084Z,100020.63
2023-05-10T14:48:30.660Z,100019.50
2023-05-10T14:53:32.170Z,100023.69
2023-05-10T14:58:34.432Z,100026.06
2023-05-10T15:03:36.220Z,100024.31
2023-05-10T15:08:38.145Z,100032.56
2023-05-10T15:13:39.576Z,100037.72
2023-05-10T15:18:41.062Z,100029.47
2023-05-10T15:23:42.564Z,100033.78
2023-05-10T15:28:44.554Z,100041.00
2023-05-10T15:33:45.990Z,100043.63
2023-05-10T15:38:47.409Z,100035.50
2023-05-10T15:43:48.819Z,100035.94
2023-05-10T15:48:50.527Z,100045.91
2023-05-10T15:54:05.980Z,100043.44
2023-05-10T15:59:10.606Z,100045.22
2023-05-10T16:04:12.467Z,100039.81
2023-05-10T16:09:13.992Z,100048.06
2023-05-10T16:14:16.362Z,100052.78
2023-05-10T16:19:18.428Z,100059.81
2023-05-10T16:24:20.065Z,100065.66
2023-05-10T16:29:21.479Z,100067.69
2023-05-10T16:34:24.306Z,100064.88
2023-05-10T16:39:25.912Z,100081.22
2023-05-10T16:44:27.347Z,100078.69
2023-05-10T16:49:28.973Z,100097.50
2023-05-10T16:54:30.448Z,100085.94
2023-05-10T16:59:31.882Z,100097.09
2023-05-10T17:04:33.362Z,100109.09
2023-05-10T17:09:34.902Z,100108.50
2023-05-10T17:14:39.997Z,100104.97
2023-05-10T17:19:44.887Z,100106.00
2023-05-10T17:24:46.510Z,100114.63
2023-05-10T17:29:47.985Z,100117.84
2023-05-10T17:34:49.693Z,100112.59
2023-05-10T17:39:52.307Z,100118.28
2023-05-10T17:44:54.444Z,100129.03
2023-05-10T17:49:55.937Z,100131.53
2023-05-10T17:54:57.406Z,100134.06
2023-05-10T17:59:58.856Z,100128.38
2023-05-10T18:05:01.648Z,100131.72
2023-05-10T18:10:03.246Z,100127.53
2023-05-10T18:15:05.329Z,100134.31
2023-05-10T18:20:07.428Z,100148.66
2023-05-10T18:25:09.229Z,100137.81
2023-05-10T18:30:12.349Z,100148.00
2023-05-10T18:35:14.053Z,100157.75
2023-05-10T18:40:17.111Z,100153.03
2023-05-10T18:45:18.854Z,100167.94
2023-05-10T18:50:20.666Z,100156.50
2023-05-10T18:55:23.710Z,100161.63
2023-05-10T19:00:25.333Z,100172.38
2023-05-10T19:05:30.014Z,100182.53
2023-05-10T19:10:31.434Z,100175.50
2023-05-10T19:15:33.084Z,100185.81
2023-05-10T19:20:38.093Z,100203.94
2023-05-10T19:25:42.251Z,100201.03
2023-05-10T19:30:43.697Z,100210.06
2023-05-10T19:35:45.547Z,100208.19
2023-05-10T19:40:46.994Z,100203.88
2023-05-10T19:45:48.470Z,100201.00
2023-05-10T19:50:50.455Z,100216.25
2023-05-10T19:55:51.927Z,100212.66
2023-05-10T20:00:53.575Z,100221.06
2023-05-10T20:05:55.049Z,100214.28
2023-05-10T20:10:58.949Z,100218.75
2023-05-10T20:16:00.608Z,100214.16
2023-05-10T20:21:02.049Z,100211.84
2023-05-10T20:26:04.103Z,100213.72
2023-05-10T20:31:05.566Z,100218.66
2023-05-10T20:36:09.486Z,100215.47
2023-05-10T20:41:10.929Z,100222.84
2023-05-10T20:46:12.482Z,100226.34
2023-05-10T20:51:13.942Z,100222.31
2023-05-10T20:56:15.511Z,100221.47
2023-05-10T21:01:16.959Z,100222.88
2023-05-10T21:06:18.398Z,100216.16
2023-05-10T21:11:19.838Z,100225.25
2023-05-10T21:16:21.319Z,100215.44
2023-05-10T21:21:22.836Z,100223.25
2023-05-10T21:26:24.299Z,100222.81
2023-05-10T21:31:25.851Z,100224.97
2023-05-10T21:36:27.812Z,100218.88
2023-05-10T21:41:29.263Z,100232.13
2023-05-10T21:46:30.971Z,100234.53
2023-05-10T21:51:32.425Z,100230.53
2023-05-10T21:56:33.856Z,100234.34
2023-05-10T22:01:35.376Z,100236.97
2023-05-10T22:06:36.886Z,100240.28
2023-05-10T22:11:38.319Z,100235.13
2023-05-10T22:16:39.758Z,100238.03
2023-05-10T22:21:41.412Z,100240.19
2023-05-10T22:26:42.829Z,100238.22
2023-05-10T22:31:44.244Z,100238.00
2023-05-10T22:36:45.852Z,100234.00
2023-05-10T22:41:47.270Z,100237.09
2023-05-10T22:46:48.737Z,100236.16
2023-05-10T22:51:50.216Z,100236.16
2023-05-10T22:56:51.646Z,100233.19
2023-05-10T23:01:54.143Z,100231.44
2023-05-10T23:06:55.603Z,100233.56
2023-05-10T23:11:57.416Z,100236.38
2023-05-10T23:16:58.903Z,100242.59
2023-05-10T23:22:00.403Z,100249.69
2023-05-10T23:27:02.359Z,100244.69
2023-05-10T23:32:04.055Z,100248.19
2023-05-10T23:37:06.175Z,100239.97
2023-05-10T23:42:07.616Z,100241.00
2023-05-10T23:47:09.062Z,100241.97
2023-05-10T23:52:10.521Z,100233.63
2023-05-10T23:57:11.959Z,100241.31
